createdAt,value
2023-04-17T00:01:10.363Z,7.60
2023-04-17T00:03:37.015Z,7.60
2023-04-17T00:06:03.986Z,7.60
2023-04-17T00:08:30.551Z,7.60
2023-04-17T00:11:07.107Z,7.60
2023-04-17T00:13:35.535Z,7.60
2023-04-17T00:16:02.415Z,7.70
2023-04-17T00:18:29.258Z,7.60
2023-04-17T00:20:55.837Z,7.70
2023-04-17T00:23:22.379Z,7.60
2023-04-17T00:25:48.932Z,7.60
2023-04-17T00:28:15.488Z,7.60
2023-04-17T00:30:42.040Z,7.60
2023-04-17T00:33:08.650Z,7.60
2023-04-17T00:35:35.226Z,7.60
2023-04-17T00:38:01.750Z,7.60
2023-04-17T00:40:28.325Z,7.70
2023-04-17T00:43:00.992Z,7.70
2023-04-17T00:45:27.903Z,7.70
2023-04-17T00:47:56.832Z,7.70
2023-04-17T00:50:23.675Z,7.70
2023-04-17T00:52:50.813Z,7.70
2023-04-17T00:55:17.839Z,7.60
2023-04-17T00:57:44.763Z,7.70
2023-04-17T01:00:15.221Z,7.70
2023-04-17T01:02:41.976Z,7.70
2023-04-17T01:05:09.005Z,7.70
2023-04-17T01:07:36.532Z,7.70
2023-04-17T01:10:03.780Z,7.70
2023-04-17T01:12:30.348Z,7.80
2023-04-17T01:14:57.089Z,7.80
2023-04-17T01:17:24.567Z,7.80
2023-04-17T01:19:51.456Z,7.80
2023-04-17T01:22:18.699Z,7.80
2023-04-17T01:24:45.383Z,7.90
2023-04-17T01:27:12.292Z,7.90
2023-04-17T01:29:39.212Z,7.90
2023-04-17T01:32:05.882Z,7.90
2023-04-17T01:34:32.508Z,7.80
2023-04-17T01:36:59.044Z,7.90
2023-04-17T01:39:25.701Z,7.90
2023-04-17T01:41:52.277Z,7.90
2023-04-17T01:44:18.845Z,7.90
2023-04-17T01:46:45.470Z,7.90
2023-04-17T01:49:12.453Z,7.90
2023-04-17T01:51:39.102Z,7.90
2023-04-17T01:54:06.045Z,7.90
2023-04-17T01:56:32.608Z,7.90
2023-04-17T01:58:59.136Z,7.90
2023-04-17T02:01:25.778Z,7.80
2023-04-17T02:03:52.516Z,7.80
2023-04-17T02:06:19.238Z,7.80
2023-04-17T02:08:45.792Z,7.80
2023-04-17T02:11:12.378Z,7.80
2023-04-17T02:13:38.988Z,7.80
2023-04-17T02:16:06.157Z,7.80
2023-04-17T02:18:32.787Z,7.80
2023-04-17T02:20:59.334Z,7.80
2023-04-17T02:23:25.900Z,7.80
2023-04-17T02:25:52.485Z,7.80
2023-04-17T02:28:19.049Z,7.80
2023-04-17T02:30:45.586Z,7.80
2023-04-17T02:33:12.165Z,7.90
2023-04-17T02:35:39.307Z,7.80
2023-04-17T02:38:05.904Z,7.80
2023-04-17T02:40:32.500Z,7.90
2023-04-17T02:42:59.049Z,7.80
2023-04-17T02:45:25.817Z,7.80
2023-04-17T02:47:52.466Z,7.80
2023-04-17T02:50:19.195Z,7.80
2023-04-17T02:52:45.751Z,7.80
2023-04-17T02:55:12.298Z,7.80
2023-04-17T02:57:38.902Z,7.80
2023-04-17T03:00:06.146Z,7.80
2023-04-17T03:02:32.820Z,7.80
2023-04-17T03:04:59.748Z,7.80
2023-04-17T03:07:27.922Z,7.80
2023-04-17T03:09:54.490Z,7.80
2023-04-17T03:12:21.089Z,7.80
2023-04-17T03:14:47.625Z,7.80
2023-04-17T03:17:15.072Z,7.80
2023-04-17T03:19:41.638Z,7.80
2023-04-17T03:22:08.472Z,7.80
2023-04-17T03:24:35.104Z,7.80
2023-04-17T03:27:01.800Z,7.80
2023-04-17T03:29:28.593Z,7.80
2023-04-17T03:31:55.197Z,7.80
2023-04-17T03:34:23.318Z,7.90
2023-04-17T03:36:49.876Z,7.90
2023-04-17T03:39:16.434Z,7.90
2023-04-17T03:41:43.109Z,7.80
2023-04-17T03:44:09.994Z,7.80
2023-04-17T03:46:37.223Z,7.90
2023-04-17T03:49:03.837Z,7.80
2023-04-17T03:51:30.404Z,7.80
2023-04-17T03:53:57.154Z,7.80
2023-04-17T03:56:23.698Z,7.80
2023-04-17T03:58:50.828Z,7.80
2023-04-17T04:01:17.634Z,7.80
2023-04-17T04:03:44.347Z,7.80
2023-04-17T04:06:11.136Z,7.80
2023-04-17T04:08:37.736Z,7.80
2023-04-17T04:11:04.335Z,7.80
2023-04-17T04:13:30.885Z,7.70
2023-04-17T04:15:57.494Z,7.80
2023-04-17T04:18:24.115Z,7.70
2023-04-17T04:20:50.793Z,7.70
2023-04-17T04:23:17.397Z,7.80
2023-04-17T04:25:43.970Z,7.70
2023-04-17T04:28:10.672Z,7.80
2023-04-17T04:30:37.482Z,7.70
2023-04-17T04:33:04.510Z,7.80
2023-04-17T04:35:31.396Z,7.80
2023-04-17T04:37:57.979Z,7.80
2023-04-17T04:40:24.560Z,7.80
2023-04-17T04:42:51.164Z,7.80
2023-04-17T04:45:17.742Z,7.80
2023-04-17T04:47:44.366Z,7.80
2023-04-17T04:50:11.185Z,7.90
2023-04-17T04:52:37.784Z,7.90
2023-04-17T04:55:04.753Z,7.90
2023-04-17T04:57:31.314Z,7.80
2023-04-17T04:59:57.897Z,7.80
2023-04-17T05:02:24.583Z,7.80
2023-04-17T05:04:51.275Z,7.80
2023-04-17T05:07:17.933Z,7.80
2023-04-17T05:09:44.512Z,7.80
2023-04-17T05:12:11.051Z,7.80
2023-04-17T05:14:37.615Z,7.70
2023-04-17T05:17:04.145Z,7.70
2023-04-17T05:19:30.719Z,7.80
2023-04-17T05:21:57.313Z,7.70
2023-04-17T05:24:23.997Z,7.70
2023-04-17T05:26:50.619Z,7.70
2023-04-17T05:29:17.252Z,7.70
2023-04-17T05:31:43.891Z,7.70
2023-04-17T05:34:10.505Z,7.70
2023-04-17T05:36:37.074Z,7.70
2023-04-17T05:39:03.723Z,7.70
2023-04-17T05:41:30.286Z,7.60
2023-04-17T05:43:56.842Z,7.70
2023-04-17T05:46:23.420Z,7.70
2023-04-17T05:48:49.977Z,7.80
2023-04-17T05:51:16.577Z,7.80
2023-04-17T05:53:43.129Z,7.90
2023-04-17T05:56:09.703Z,7.90
2023-04-17T05:58:36.294Z,7.90
2023-04-17T06:01:03.225Z,7.90
2023-04-17T06:03:29.954Z,7.90
2023-04-17T06:05:56.769Z,7.90
2023-04-17T06:08:23.327Z,7.90
2023-04-17T06:10:49.984Z,8.00
2023-04-17T06:13:16.558Z,8.00
2023-04-17T06:15:43.090Z,8.00
2023-04-17T06:18:09.680Z,8.00
2023-04-17T06:20:38.697Z,8.00
2023-04-17T06:23:06.504Z,8.00
2023-04-17T06:25:33.050Z,8.10
2023-04-17T06:27:59.638Z,8.10
2023-04-17T06:30:26.203Z,8.00
2023-04-17T06:32:52.827Z,8.20
2023-04-17T06:35:19.496Z,8.20
2023-04-17T06:37:46.028Z,8.20
2023-04-17T06:40:12.840Z,8.30
2023-04-17T06:42:39.433Z,8.40
2023-04-17T06:45:06.430Z,8.40
2023-04-17T06:47:33.025Z,8.40
2023-04-17T06:49:59.642Z,8.30
2023-04-17T06:52:26.484Z,8.30
2023-04-17T06:54:56.102Z,8.40
2023-04-17T06:57:22.796Z,8.60
2023-04-17T06:59:49.376Z,8.60
2023-04-17T07:02:16.229Z,8.60
2023-04-17T07:04:43.008Z,8.50
2023-04-17T07:07:09.678Z,8.40
2023-04-17T07:09:36.245Z,8.60
2023-04-17T07:12:02.868Z,8.60
2023-04-17T07:14:29.665Z,8.60
2023-04-17T07:16:56.209Z,8.60
2023-04-17T07:19:23.106Z,8.70
2023-04-17T07:21:49.670Z,8.60
2023-04-17T07:24:16.303Z,8.60
2023-04-17T07:26:42.933Z,8.60
2023-04-17T07:29:09.752Z,8.60
2023-04-17T07:31:36.563Z,8.70
2023-04-17T07:34:03.179Z,8.80
2023-04-17T07:36:29.785Z,8.90
2023-04-17T07:38:56.395Z,8.80
2023-04-17T07:41:22.981Z,8.90
2023-04-17T07:43:49.530Z,8.80
2023-04-17T07:46:16.717Z,8.80
2023-04-17T07:48:43.344Z,8.70
2023-04-17T07:51:10.029Z,8.70
2023-04-17T07:53:36.597Z,8.80
2023-04-17T07:56:03.313Z,8.80
2023-04-17T07:58:29.881Z,8.80
2023-04-17T08:00:56.465Z,8.90
2023-04-17T08:03:23.191Z,8.80
2023-04-17T08:05:50.463Z,8.80
2023-04-17T08:08:17.120Z,8.90
2023-04-17T08:10:43.812Z,8.90
2023-04-17T08:13:10.349Z,9.00
2023-04-17T08:15:38.543Z,9.20
2023-04-17T08:18:07.320Z,9.10
2023-04-17T08:20:33.973Z,9.10
2023-04-17T08:23:00.536Z,9.20
2023-04-17T08:25:27.404Z,9.30
2023-04-17T08:27:54.096Z,9.30
2023-04-17T08:30:20.681Z,9.30
2023-04-17T08:32:48.858Z,9.40
2023-04-17T08:35:16.025Z,9.30
2023-04-17T08:37:43.516Z,9.40
2023-04-17T08:40:10.369Z,9.40
2023-04-17T08:42:38.620Z,9.40
2023-04-17T08:45:06.897Z,9.30
2023-04-17T08:47:34.674Z,9.40
2023-04-17T08:50:12.670Z,9.40
2023-04-17T08:52:47.070Z,9.50
2023-04-17T08:55:15.759Z,9.50
2023-04-17T08:58:01.656Z,9.40
2023-04-17T09:00:29.594Z,9.50
2023-04-17T09:02:58.120Z,9.40
2023-04-17T09:05:26.572Z,9.40
2023-04-17T09:08:14.228Z,9.30
2023-04-17T09:10:42.577Z,9.40
2023-04-17T09:13:09.636Z,9.40
2023-04-17T09:15:36.864Z,9.40
2023-04-17T09:18:05.222Z,9.70
2023-04-17T09:20:31.808Z,9.70
2023-04-17T09:23:01.920Z,9.60
2023-04-17T09:25:28.959Z,9.50
2023-04-17T09:28:08.902Z,9.60
2023-04-17T09:30:38.763Z,9.70
2023-04-17T09:33:06.558Z,9.80
2023-04-17T09:35:33.395Z,9.80
2023-04-17T09:38:00.141Z,9.70
2023-04-17T09:40:35.644Z,9.90
2023-04-17T09:43:04.049Z,10.00
2023-04-17T09:45:31.876Z,10.10
2023-04-17T09:47:58.936Z,10.00
2023-04-17T09:50:25.798Z,10.10
2023-04-17T09:52:54.152Z,10.10
2023-04-17T09:55:22.550Z,10.10
2023-04-17T09:57:51.905Z,10.20
2023-04-17T10:00:23.169Z,10.20
2023-04-17T10:02:51.394Z,10.20
2023-04-17T10:05:19.412Z,10.30
2023-04-17T10:07:46.228Z,10.40
2023-04-17T10:10:25.698Z,10.60
2023-04-17T10:12:56.025Z,10.90
2023-04-17T10:15:24.483Z,11.00
2023-04-17T10:17:51.442Z,11.10
2023-04-17T10:20:18.099Z,11.10
2023-04-17T10:22:45.290Z,11.20
2023-04-17T10:25:11.805Z,11.10
2023-04-17T10:27:38.352Z,11.10
2023-04-17T10:30:07.013Z,11.10
2023-04-17T10:32:33.645Z,11.20
2023-04-17T10:35:02.391Z,11.30
2023-04-17T10:37:47.189Z,11.60
2023-04-17T10:40:23.623Z,11.70
2023-04-17T10:43:11.844Z,11.90
2023-04-17T10:46:05.696Z,12.20
2023-04-17T10:48:36.703Z,12.20
2023-04-17T10:51:21.554Z,12.10
2023-04-17T10:53:50.061Z,12.10
2023-04-17T10:56:23.548Z,12.30
2023-04-17T10:59:11.057Z,12.30
2023-04-17T11:01:38.000Z,12.50
2023-04-17T11:04:05.559Z,12.60
2023-04-17T11:06:33.461Z,12.80
2023-04-17T11:09:00.402Z,12.90
2023-04-17T11:11:40.476Z,12.90
2023-04-17T11:14:15.130Z,12.90
2023-04-17T11:16:43.113Z,12.80
2023-04-17T11:19:11.313Z,13.00
2023-04-17T11:21:44.850Z,13.40
2023-04-17T11:24:11.760Z,13.40
2023-04-17T11:26:48.116Z,13.10
2023-04-17T11:29:19.420Z,13.10
2023-04-17T11:31:47.130Z,13.20
2023-04-17T11:34:14.566Z,13.30
2023-04-17T11:36:48.072Z,13.50
2023-04-17T11:39:15.495Z,13.80
2023-04-17T11:41:42.064Z,14.10
2023-04-17T11:44:16.787Z,14.20
2023-04-17T11:46:48.641Z,14.40
2023-04-17T11:49:15.229Z,14.40
2023-04-17T11:51:45.244Z,14.20
2023-04-17T11:54:21.141Z,14.00
2023-04-17T11:57:12.000Z,13.70
2023-04-17T11:59:40.298Z,13.80
2023-04-17T12:02:08.354Z,13.80
2023-04-17T12:04:38.532Z,14.10
2023-04-17T12:07:06.940Z,14.00
2023-04-17T12:09:35.136Z,14.00
2023-04-17T12:12:05.404Z,13.70
2023-04-17T12:14:32.354Z,13.60
2023-04-17T12:16:59.658Z,13.40
2023-04-17T12:19:26.355Z,13.30
2023-04-17T12:21:53.024Z,13.20
2023-04-17T12:24:19.595Z,13.10
2023-04-17T12:26:50.161Z,13.10
2023-04-17T12:29:17.208Z,13.00
2023-04-17T12:31:44.988Z,12.90
2023-04-17T12:34:11.915Z,12.60
2023-04-17T12:36:38.985Z,12.50
2023-04-17T12:39:05.565Z,12.40
2023-04-17T12:41:32.155Z,12.20
2023-04-17T12:43:59.027Z,12.10
2023-04-17T12:46:25.667Z,12.00
2023-04-17T12:48:52.355Z,12.00
2023-04-17T12:51:18.910Z,12.00
2023-04-17T12:53:45.490Z,11.80
2023-04-17T12:56:12.076Z,11.80
2023-04-17T12:58:38.605Z,11.50
2023-04-17T13:01:05.472Z,10.90
2023-04-17T13:03:32.223Z,10.90
2023-04-17T13:05:58.991Z,10.70
2023-04-17T13:08:25.772Z,10.40
2023-04-17T13:10:52.374Z,10.10
2023-04-17T13:13:18.943Z,9.70
2023-04-17T13:15:45.519Z,9.60
2023-04-17T13:18:12.110Z,9.40
2023-04-17T13:20:38.757Z,9.40
2023-04-17T13:23:05.326Z,9.40
2023-04-17T13:25:32.647Z,9.40
2023-04-17T13:27:59.585Z,9.50
2023-04-17T13:30:26.180Z,9.40
2023-04-17T13:32:52.879Z,9.30
2023-04-17T13:35:19.535Z,9.30
2023-04-17T13:37:46.083Z,9.30
2023-04-17T13:40:13.006Z,9.30
2023-04-17T13:42:39.956Z,9.40
2023-04-17T13:45:07.684Z,9.50
2023-04-17T13:47:34.345Z,9.50
2023-04-17T13:50:00.946Z,9.50
2023-04-17T13:52:27.736Z,9.60
2023-04-17T13:54:54.369Z,9.60
2023-04-17T13:57:20.925Z,9.70
2023-04-17T13:59:47.503Z,9.80
2023-04-17T14:02:14.294Z,9.90
2023-04-17T14:04:44.270Z,10.10
2023-04-17T14:07:11.301Z,10.20
2023-04-17T14:09:38.052Z,10.30
2023-04-17T14:12:04.738Z,10.50
2023-04-17T14:14:31.312Z,10.60
2023-04-17T14:16:57.908Z,10.70
2023-04-17T14:19:24.503Z,10.60
2023-04-17T14:21:51.021Z,10.60
2023-04-17T14:24:17.733Z,10.50
2023-04-17T14:26:44.335Z,10.50
2023-04-17T14:29:11.226Z,10.50
2023-04-17T14:31:37.998Z,10.40
2023-04-17T14:34:04.565Z,10.40
2023-04-17T14:36:31.294Z,10.30
2023-04-17T14:38:58.793Z,10.30
2023-04-17T14:41:25.383Z,10.20
2023-04-17T14:43:51.981Z,10.10
2023-04-17T14:46:21.355Z,10.20
2023-04-17T14:48:55.515Z,10.10
2023-04-17T14:51:23.887Z,10.10
2023-04-17T14:53:51.044Z,10.20
2023-04-17T14:56:17.738Z,10.20
2023-04-17T14:58:44.329Z,10.10
2023-04-17T15:01:10.993Z,10.10
2023-04-17T15:03:37.823Z,10.00
2023-04-17T15:06:04.676Z,9.90
2023-04-17T15:08:31.283Z,9.90
2023-04-17T15:10:58.220Z,10.00
2023-04-17T15:13:24.818Z,10.10
2023-04-17T15:15:51.382Z,10.10
2023-04-17T15:18:17.940Z,10.20
2023-04-17T15:20:44.573Z,10.10
2023-04-17T15:23:11.152Z,10.30
2023-04-17T15:25:37.737Z,10.50
2023-04-17T15:28:04.418Z,10.80
2023-04-17T15:30:31.033Z,10.90
2023-04-17T15:32:57.634Z,10.90
2023-04-17T15:35:24.273Z,11.00
2023-04-17T15:37:50.827Z,10.90
2023-04-17T15:40:17.414Z,10.90
2023-04-17T15:42:44.032Z,11.00
2023-04-17T15:45:10.768Z,11.20
2023-04-17T15:47:37.394Z,11.30
2023-04-17T15:50:04.212Z,11.60
2023-04-17T15:52:30.776Z,11.60
2023-04-17T15:54:57.376Z,11.70
2023-04-17T15:57:23.993Z,11.70
2023-04-17T15:59:50.552Z,11.80
2023-04-17T16:02:17.241Z,11.70
2023-04-17T16:04:44.010Z,11.80
2023-04-17T16:07:10.636Z,11.60
2023-04-17T16:09:38.190Z,11.80
2023-04-17T16:12:05.107Z,11.60
2023-04-17T16:14:31.633Z,11.70
2023-04-17T16:17:00.928Z,11.90
2023-04-17T16:19:27.543Z,12.00
2023-04-17T16:21:54.095Z,11.90
2023-04-17T16:24:20.630Z,12.00
2023-04-17T16:26:47.227Z,12.10
2023-04-17T16:29:13.931Z,12.20
2023-04-17T16:31:40.690Z,12.00
2023-04-17T16:34:07.348Z,11.80
2023-04-17T16:36:33.892Z,11.70
2023-04-17T16:39:00.445Z,11.60
2023-04-17T16:41:27.457Z,11.70
2023-04-17T16:43:54.812Z,11.60
2023-04-17T16:46:26.061Z,11.60
2023-04-17T16:49:01.899Z,11.60
2023-04-17T16:51:28.462Z,11.60
2023-04-17T16:53:55.021Z,11.70
2023-04-17T16:56:21.595Z,11.50
2023-04-17T16:58:48.155Z,11.40
2023-04-17T17:01:14.761Z,11.30
2023-04-17T17:03:41.506Z,11.10
2023-04-17T17:06:08.269Z,11.20
2023-04-17T17:08:34.820Z,11.00
2023-04-17T17:11:01.460Z,10.80
2023-04-17T17:13:28.013Z,10.60
2023-04-17T17:15:54.592Z,10.60
2023-04-17T17:18:21.174Z,10.70
2023-04-17T17:20:50.593Z,10.60
2023-04-17T17:23:17.136Z,10.60
2023-04-17T17:25:43.714Z,10.40
2023-04-17T17:28:10.270Z,10.40
2023-04-17T17:30:36.843Z,10.40
2023-04-17T17:33:03.534Z,10.40
2023-04-17T17:35:30.092Z,10.30
2023-04-17T17:37:56.638Z,10.40
2023-04-17T17:40:23.183Z,10.30
2023-04-17T17:42:49.779Z,10.20
2023-04-17T17:45:16.412Z,10.20
2023-04-17T17:47:43.015Z,10.20
2023-04-17T17:50:09.832Z,10.10
2023-04-17T17:52:36.416Z,10.10
2023-04-17T17:55:03.214Z,10.00
2023-04-17T17:57:38.737Z,10.00
2023-04-17T18:00:15.281Z,10.00
2023-04-17T18:02:41.996Z,10.00
2023-04-17T18:05:08.752Z,10.10
2023-04-17T18:07:35.350Z,10.00
2023-04-17T18:10:01.984Z,10.00
2023-04-17T18:12:28.606Z,10.00
2023-04-17T18:14:55.226Z,9.90
2023-04-17T18:17:21.815Z,9.90
2023-04-17T18:19:48.423Z,9.80
2023-04-17T18:22:15.007Z,9.80
2023-04-17T18:24:41.548Z,9.80
2023-04-17T18:27:08.111Z,9.90
2023-04-17T18:29:34.709Z,9.70
2023-04-17T18:32:01.289Z,9.80
2023-04-17T18:34:27.861Z,9.70
2023-04-17T18:36:54.537Z,9.70
2023-04-17T18:39:21.174Z,9.60
2023-04-17T18:41:47.807Z,9.50
2023-04-17T18:44:15.151Z,9.60
2023-04-17T18:46:41.741Z,9.50
2023-04-17T18:49:08.286Z,9.50
2023-04-17T18:51:34.836Z,9.50
2023-04-17T18:54:01.391Z,9.40
2023-04-17T18:56:27.966Z,9.40
2023-04-17T18:58:54.555Z,9.30
2023-04-17T19:01:21.150Z,9.30
2023-04-17T19:03:47.707Z,9.20
2023-04-17T19:06:14.314Z,9.10
2023-04-17T19:08:40.895Z,9.10
2023-04-17T19:11:07.442Z,9.10
2023-04-17T19:13:34.026Z,9.10
2023-04-17T19:16:00.619Z,9.10
2023-04-17T19:18:27.190Z,9.20
2023-04-17T19:20:53.822Z,9.10
2023-04-17T19:23:20.377Z,9.10
2023-04-17T19:25:53.641Z,9.10
2023-04-17T19:28:20.559Z,9.10
2023-04-17T19:30:47.196Z,9.10
2023-04-17T19:33:13.774Z,9.00
2023-04-17T19:35:40.967Z,9.00
2023-04-17T19:38:07.569Z,9.00
2023-04-17T19:40:34.126Z,9.00
2023-04-17T19:43:00.681Z,9.00
2023-04-17T19:45:27.936Z,9.10
2023-04-17T19:47:54.650Z,9.00
2023-04-17T19:50:22.306Z,9.10
2023-04-17T19:52:48.857Z,9.00
2023-04-17T19:55:15.464Z,9.00
2023-04-17T19:57:42.071Z,9.00
2023-04-17T20:00:09.326Z,9.00
2023-04-17T20:02:36.004Z,9.00
2023-04-17T20:05:03.076Z,9.00
2023-04-17T20:07:29.962Z,9.00
2023-04-17T20:09:56.499Z,9.00
2023-04-17T20:12:23.154Z,9.00
2023-04-17T20:14:51.674Z,9.00
2023-04-17T20:17:19.004Z,9.00
2023-04-17T20:19:45.992Z,9.00
2023-04-17T20:22:12.571Z,9.00
2023-04-17T20:24:39.108Z,8.90
2023-04-17T20:27:05.702Z,8.90
2023-04-17T20:29:32.280Z,8.90
2023-04-17T20:31:58.891Z,8.80
2023-04-17T20:34:25.866Z,8.90
2023-04-17T20:36:52.453Z,8.80
2023-04-17T20:39:19.019Z,8.80
2023-04-17T20:41:47.224Z,8.90
2023-04-17T20:44:13.942Z,8.90
2023-04-17T20:46:40.678Z,9.00
2023-04-17T20:49:07.301Z,9.00
2023-04-17T20:51:33.847Z,9.10
2023-04-17T20:54:00.423Z,9.00
2023-04-17T20:56:27.057Z,9.00
2023-04-17T20:58:53.597Z,9.00
2023-04-17T21:01:20.166Z,8.90
2023-04-17T21:03:46.891Z,8.90
2023-04-17T21:06:13.558Z,8.90
2023-04-17T21:08:40.113Z,8.90
2023-04-17T21:11:06.717Z,9.00
2023-04-17T21:13:33.316Z,8.90
2023-04-17T21:15:59.947Z,9.00
2023-04-17T21:18:26.577Z,9.10
2023-04-17T21:20:53.191Z,9.00
2023-04-17T21:23:19.782Z,8.90
2023-04-17T21:25:46.453Z,8.90
2023-04-17T21:28:13.026Z,8.70
2023-04-17T21:30:39.597Z,8.70
2023-04-17T21:33:06.243Z,8.80
2023-04-17T21:35:32.938Z,8.80
2023-04-17T21:37:59.525Z,8.70
2023-04-17T21:40:27.613Z,8.70
2023-04-17T21:43:00.520Z,8.70
2023-04-17T21:45:27.220Z,8.70
2023-04-17T21:47:53.876Z,8.70
2023-04-17T21:50:20.550Z,8.70
2023-04-17T21:52:47.136Z,8.70
2023-04-17T21:55:13.787Z,8.70
2023-04-17T21:57:40.329Z,8.70
2023-04-17T22:00:07.520Z,8.80
2023-04-17T22:02:34.197Z,8.70
2023-04-17T22:05:00.861Z,8.70
2023-04-17T22:07:27.451Z,8.80
2023-04-17T22:09:54.053Z,8.70
2023-04-17T22:12:20.688Z,8.70
2023-04-17T22:14:47.553Z,8.70
2023-04-17T22:17:14.969Z,8.70
2023-04-17T22:19:41.830Z,8.60
2023-04-17T22:22:08.435Z,8.70
2023-04-17T22:24:35.965Z,8.70
2023-04-17T22:27:02.571Z,8.70
2023-04-17T22:29:29.197Z,8.70
2023-04-17T22:31:55.757Z,8.80
2023-04-17T22:34:22.435Z,8.80
2023-04-17T22:36:49.041Z,8.70
2023-04-17T22:39:15.643Z,8.70
2023-04-17T22:41:42.202Z,8.70
2023-04-17T22:44:08.819Z,8.60
2023-04-17T22:46:35.552Z,8.60
2023-04-17T22:49:02.270Z,8.70
2023-04-17T22:51:29.213Z,8.70
2023-04-17T22:53:56.055Z,8.80
2023-04-17T22:56:24.323Z,8.70
2023-04-17T22:58:51.022Z,8.70
2023-04-17T23:01:17.678Z,8.60
2023-04-17T23:03:44.265Z,8.60
2023-04-17T23:06:10.871Z,8.60
2023-04-17T23:08:37.458Z,8.60
2023-04-17T23:11:04.200Z,8.60
2023-04-17T23:13:30.785Z,8.60
2023-04-17T23:15:57.850Z,8.60
2023-04-17T23:18:24.479Z,8.60
2023-04-17T23:20:51.141Z,8.70
2023-04-17T23:23:17.745Z,8.60
2023-04-17T23:25:44.728Z,8.60
2023-04-17T23:28:11.335Z,8.60
2023-04-17T23:30:37.943Z,8.50
2023-04-17T23:33:04.689Z,8.50
2023-04-17T23:35:31.389Z,8.50
2023-04-17T23:37:57.987Z,8.60
2023-04-17T23:40:24.598Z,8.50
2023-04-17T23:42:51.209Z,8.50
2023-04-17T23:45:17.886Z,8.50
2023-04-17T23:47:44.523Z,8.50
2023-04-17T23:50:11.543Z,8.60
2023-04-17T23:52:38.201Z,8.60
2023-04-17T23:55:05.296Z,8.50
2023-04-17T23:57:31.913Z,8.50
2023-04-17T23:59:58.462Z,8.50
